createdAt,value
2019-03-06T00:00:41.609Z,32.37
2019-03-06T00:03:11.938Z,35.57
2019-03-06T00:05:42.154Z,24.73
2019-03-06T00:08:12.068Z,24.70
2019-03-06T00:10:43.108Z,21.77
2019-03-06T00:13:13.009Z,20.67
2019-03-06T00:15:42.938Z,19.33
2019-03-06T00:18:13.033Z,18.47
2019-03-06T00:20:42.967Z,18.17
2019-03-06T00:23:12.867Z,16.30
2019-03-06T00:25:42.896Z,17.20
2019-03-06T00:28:13.210Z,18.93
2019-03-06T00:30:43.235Z,19.30
2019-03-06T00:33:13.147Z,16.77
2019-03-06T00:35:47.461Z,17.13
2019-03-06T00:38:17.376Z,18.73
2019-03-06T00:40:48.918Z,17.90
2019-03-06T00:43:18.846Z,17.23
2019-03-06T00:45:48.753Z,19.97
2019-03-06T00:48:18.813Z,17.57
2019-03-06T00:50:49.136Z,15.77
2019-03-06T00:53:19.234Z,21.70
2019-03-06T00:55:49.354Z,17.43
2019-03-06T00:58:19.447Z,16.27
2019-03-06T01:00:49.567Z,20.17
2019-03-06T01:03:19.863Z,19.63
2019-03-06T01:05:50.543Z,19.27
2019-03-06T01:08:20.852Z,20.90
2019-03-06T01:10:51.165Z,21.33
2019-03-06T01:13:21.508Z,17.90
2019-03-06T01:15:51.603Z,20.70
2019-03-06T01:18:21.851Z,21.80
2019-03-06T01:20:52.864Z,19.30
2019-03-06T01:23:23.006Z,20.23
2019-03-06T01:25:53.111Z,22.17
2019-03-06T01:28:24.054Z,21.50
2019-03-06T01:30:54.165Z,19.97
2019-03-06T01:33:38.021Z,25.27
2019-03-06T01:36:12.316Z,24.10
2019-03-06T01:38:59.234Z,21.67
2019-03-06T01:41:34.179Z,26.27
2019-03-06T01:44:08.783Z,22.23
2019-03-06T01:46:38.914Z,25.33
2019-03-06T01:49:09.038Z,23.60
2019-03-06T01:51:39.417Z,21.80
2019-03-06T01:54:09.478Z,23.73
2019-03-06T01:56:39.682Z,22.90
2019-03-06T01:59:09.793Z,24.17
2019-03-06T02:01:39.937Z,23.83
2019-03-06T02:04:09.889Z,22.77
2019-03-06T02:06:39.854Z,23.63
2019-03-06T02:09:10.593Z,26.50
2019-03-06T02:11:40.905Z,25.10
2019-03-06T02:14:11.425Z,22.40
2019-03-06T02:16:41.663Z,26.53
2019-03-06T02:19:11.874Z,17.77
2019-03-06T02:21:41.997Z,8.40
2019-03-06T02:24:11.933Z,6.90
2019-03-06T02:26:41.925Z,4.50
2019-03-06T02:29:12.033Z,4.70
2019-03-06T02:31:42.173Z,3.10
2019-03-06T02:34:12.213Z,2.23
2019-03-06T02:36:42.303Z,1.57
2019-03-06T02:39:12.439Z,1.90
2019-03-06T02:41:42.638Z,1.23
2019-03-06T02:44:13.460Z,1.13
2019-03-06T02:46:43.713Z,2.23
2019-03-06T02:49:13.673Z,1.10
2019-03-06T02:51:43.804Z,0.90
2019-03-06T02:54:13.835Z,2.30
2019-03-06T02:56:43.846Z,4.30
2019-03-06T02:59:18.489Z,3.03
2019-03-06T03:01:53.103Z,1.20
2019-03-06T03:04:24.758Z,0.70
2019-03-06T03:06:56.713Z,2.33
2019-03-06T03:09:26.729Z,0.70
2019-03-06T03:11:57.168Z,2.17
2019-03-06T03:14:27.395Z,3.83
2019-03-06T03:16:57.484Z,1.93
2019-03-06T03:19:27.513Z,3.43
2019-03-06T03:21:57.524Z,3.87
2019-03-06T03:24:27.645Z,4.30
2019-03-06T03:26:57.962Z,6.40
2019-03-06T03:29:29.499Z,4.67
2019-03-06T03:31:59.651Z,4.37
2019-03-06T03:34:29.961Z,5.50
2019-03-06T03:36:59.991Z,4.40
2019-03-06T03:39:30.089Z,4.50
2019-03-06T03:42:00.213Z,3.83
2019-03-06T03:44:30.218Z,4.43
2019-03-06T03:47:00.586Z,4.27
2019-03-06T03:49:30.808Z,4.60
2019-03-06T03:52:00.988Z,4.90
2019-03-06T03:54:30.987Z,4.97
2019-03-06T03:57:01.134Z,5.47
2019-03-06T03:59:31.549Z,6.37
2019-03-06T04:02:01.845Z,5.13
2019-03-06T04:04:33.111Z,3.80
2019-03-06T04:07:03.428Z,7.93
2019-03-06T04:09:33.456Z,7.07
2019-03-06T04:12:03.673Z,8.10
2019-03-06T04:14:33.697Z,7.77
2019-03-06T04:17:03.799Z,9.27
2019-03-06T04:19:33.944Z,8.17
2019-03-06T04:22:04.152Z,5.00
2019-03-06T04:24:35.192Z,6.63
2019-03-06T04:27:05.389Z,6.80
2019-03-06T04:29:35.512Z,6.83
2019-03-06T04:32:05.840Z,8.20
2019-03-06T04:34:35.722Z,10.60
2019-03-06T04:37:05.855Z,6.53
2019-03-06T04:39:35.769Z,6.77
2019-03-06T04:42:05.692Z,7.53
2019-03-06T04:44:36.525Z,9.37
2019-03-06T04:47:07.045Z,11.93
2019-03-06T04:49:36.950Z,11.67
2019-03-06T04:52:07.910Z,13.83
2019-03-06T04:54:37.805Z,19.87
2019-03-06T04:57:07.720Z,17.53
2019-03-06T04:59:37.641Z,13.70
2019-03-06T05:02:07.639Z,13.67
2019-03-06T05:04:37.447Z,12.17
2019-03-06T05:07:07.576Z,12.77
2019-03-06T05:09:37.503Z,12.50
2019-03-06T05:12:07.392Z,13.87
2019-03-06T05:14:51.183Z,17.57
2019-03-06T05:17:25.665Z,140.53
2019-03-06T05:19:55.698Z,104.73
2019-03-06T05:22:25.818Z,36.97
2019-03-06T05:24:55.722Z,60.37
2019-03-06T05:27:25.643Z,34.27
2019-03-06T05:29:55.646Z,17.43
2019-03-06T05:32:32.852Z,14.97
2019-03-06T05:35:08.490Z,11.80
2019-03-06T05:37:50.284Z,9.33
2019-03-06T05:40:20.188Z,9.37
2019-03-06T05:42:50.246Z,12.00
2019-03-06T05:45:20.271Z,12.03
2019-03-06T05:47:50.542Z,13.67
2019-03-06T05:50:20.968Z,14.20
2019-03-06T05:52:50.882Z,14.17
2019-03-06T05:55:20.779Z,12.67
2019-03-06T05:57:50.813Z,13.70
2019-03-06T06:00:22.258Z,13.97
2019-03-06T06:02:52.272Z,16.63
2019-03-06T06:05:22.178Z,31.30
2019-03-06T06:07:52.100Z,57.03
2019-03-06T06:10:22.117Z,48.30
2019-03-06T06:12:52.768Z,34.90
2019-03-06T06:15:22.664Z,19.57
2019-03-06T06:17:52.676Z,50.27
2019-03-06T06:20:22.588Z,32.77
2019-03-06T06:23:12.578Z,20.63
2019-03-06T06:25:42.471Z,18.37
2019-03-06T06:28:13.527Z,15.00
2019-03-06T06:30:44.978Z,14.93
2019-03-06T06:33:14.865Z,11.90
2019-03-06T06:35:44.911Z,15.37
2019-03-06T06:38:14.924Z,16.57
2019-03-06T06:40:45.244Z,14.70
2019-03-06T06:43:16.274Z,15.87
2019-03-06T06:45:46.611Z,12.87
2019-03-06T06:48:21.755Z,12.97
2019-03-06T06:51:01.476Z,13.50
2019-03-06T06:53:31.801Z,14.27
2019-03-06T06:56:20.054Z,15.70
2019-03-06T06:59:08.083Z,13.00
2019-03-06T07:01:59.394Z,14.60
2019-03-06T07:04:56.244Z,18.20
2019-03-06T07:07:42.435Z,13.77
2019-03-06T07:10:17.075Z,13.97
2019-03-06T07:12:53.424Z,13.53
2019-03-06T07:15:31.025Z,13.60
2019-03-06T07:18:17.705Z,14.40
2019-03-06T07:20:49.684Z,15.43
2019-03-06T07:23:21.133Z,13.93
2019-03-06T07:26:04.974Z,17.03
2019-03-06T07:28:36.539Z,11.87
2019-03-06T07:31:14.016Z,12.17
2019-03-06T07:33:45.673Z,13.53
2019-03-06T07:36:33.925Z,16.43
2019-03-06T07:39:06.694Z,18.97
2019-03-06T07:41:41.723Z,19.80
2019-03-06T07:44:19.113Z,14.67
2019-03-06T07:47:08.484Z,11.83
2019-03-06T07:49:45.174Z,12.17
2019-03-06T07:52:19.563Z,16.37
2019-03-06T07:54:57.273Z,13.63
2019-03-06T07:57:28.683Z,24.00
2019-03-06T07:59:58.742Z,18.37
2019-03-06T08:02:56.208Z,18.20
2019-03-06T08:05:26.110Z,15.87
2019-03-06T08:07:56.024Z,16.20
2019-03-06T08:10:27.480Z,17.30
2019-03-06T08:12:58.952Z,15.50
2019-03-06T08:15:30.773Z,20.50
2019-03-06T08:18:11.352Z,21.43
2019-03-06T08:20:45.864Z,20.47
2019-03-06T08:23:17.528Z,20.10
2019-03-06T08:25:49.171Z,22.30
2019-03-06T08:28:19.097Z,19.93
2019-03-06T08:30:50.738Z,16.40
2019-03-06T08:33:20.864Z,18.40
2019-03-06T08:35:50.986Z,16.00
2019-03-06T08:38:20.889Z,17.87
2019-03-06T08:40:50.798Z,17.20
2019-03-06T08:43:20.718Z,15.00
2019-03-06T08:45:53.406Z,27.63
2019-03-06T08:48:27.818Z,40.17
2019-03-06T08:51:02.836Z,43.80
2019-03-06T08:53:43.198Z,40.47
2019-03-06T08:56:14.658Z,35.47
2019-03-06T08:58:46.210Z,33.00
2019-03-06T09:01:42.751Z,29.67
2019-03-06T09:04:17.687Z,24.57
2019-03-06T09:06:49.128Z,26.37
2019-03-06T09:09:20.678Z,24.50
2019-03-06T09:12:10.871Z,21.93
2019-03-06T09:14:59.106Z,24.47
2019-03-06T09:17:45.819Z,21.70
2019-03-06T09:20:37.042Z,16.23
2019-03-06T09:23:22.617Z,17.63
2019-03-06T09:25:50.369Z,15.73
2019-03-06T09:28:21.826Z,18.90
2019-03-06T09:31:05.627Z,15.77
2019-03-06T09:33:39.981Z,17.33
2019-03-06T09:36:14.468Z,16.40
2019-03-06T09:38:49.020Z,17.30
2019-03-06T09:41:24.266Z,20.97
2019-03-06T09:44:01.549Z,21.27
2019-03-06T09:46:49.387Z,18.53
2019-03-06T09:49:24.011Z,18.77
2019-03-06T09:51:55.457Z,19.83
2019-03-06T09:54:29.651Z,25.23
2019-03-06T09:57:19.966Z,23.20
2019-03-06T09:59:54.258Z,28.40
2019-03-06T10:02:31.555Z,24.83
2019-03-06T10:05:09.256Z,25.23
2019-03-06T10:07:40.812Z,26.60
2019-03-06T10:10:24.656Z,30.37
2019-03-06T10:13:11.151Z,25.60
2019-03-06T10:15:43.609Z,23.00
2019-03-06T10:18:16.400Z,27.77
2019-03-06T10:20:48.568Z,29.30
2019-03-06T10:23:18.698Z,32.97
2019-03-06T10:25:48.689Z,35.80
2019-03-06T10:28:27.587Z,37.00
2019-03-06T10:30:50.269Z,31.67
2019-03-06T10:33:20.191Z,39.70
2019-03-06T10:35:50.417Z,44.50
2019-03-06T10:38:20.619Z,45.57
2019-03-06T10:40:50.547Z,45.30
2019-03-06T10:43:20.577Z,46.20
2019-03-06T10:45:50.680Z,45.87
2019-03-06T10:48:20.796Z,47.20
2019-03-06T10:50:50.689Z,45.63
2019-03-06T10:53:20.609Z,51.60
2019-03-06T10:55:50.436Z,50.83
2019-03-06T10:58:20.659Z,57.63
2019-03-06T11:00:52.306Z,53.00
2019-03-06T11:03:24.259Z,56.67
2019-03-06T11:06:00.801Z,54.17
2019-03-06T11:08:31.868Z,55.90
2019-03-06T11:11:01.779Z,53.43
2019-03-06T11:13:32.929Z,48.30
2019-03-06T11:16:05.159Z,46.80
2019-03-06T11:18:35.308Z,49.87
2019-03-06T11:21:05.619Z,48.63
2019-03-06T11:23:35.861Z,47.97
2019-03-06T11:26:08.009Z,48.33
2019-03-06T11:28:38.888Z,45.60
2019-03-06T11:31:09.389Z,46.70
2019-03-06T11:33:40.078Z,45.47
2019-03-06T11:36:11.669Z,41.50
2019-03-06T11:38:41.688Z,43.13
2019-03-06T11:41:11.686Z,48.70
2019-03-06T11:43:41.608Z,52.77
2019-03-06T11:46:12.349Z,57.80
2019-03-06T11:48:42.259Z,61.17
2019-03-06T11:51:13.201Z,66.20
2019-03-06T11:53:43.108Z,63.97
2019-03-06T11:56:14.625Z,56.07
2019-03-06T11:58:44.990Z,58.50
2019-03-06T12:01:18.282Z,46.53
2019-03-06T12:03:49.159Z,40.70
2019-03-06T12:06:19.028Z,39.13
2019-03-06T12:08:49.563Z,40.40
2019-03-06T12:11:19.470Z,38.23
2019-03-06T12:13:51.305Z,38.47
2019-03-06T12:16:21.228Z,38.50
2019-03-06T12:18:51.344Z,40.53
2019-03-06T12:21:21.387Z,46.20
2019-03-06T12:23:51.712Z,60.93
2019-03-06T12:26:21.704Z,50.33
2019-03-06T12:28:51.715Z,56.77
2019-03-06T12:31:21.749Z,50.27
2019-03-06T12:33:51.862Z,51.23
2019-03-06T12:36:21.877Z,51.97
2019-03-06T12:38:51.989Z,63.53
2019-03-06T12:41:22.124Z,64.53
2019-03-06T12:43:52.114Z,55.90
2019-03-06T12:46:24.183Z,46.73
2019-03-06T12:48:57.487Z,49.57
2019-03-06T12:51:27.473Z,42.60
2019-03-06T12:53:57.614Z,52.80
2019-03-06T12:56:27.825Z,59.30
2019-03-06T12:58:57.951Z,61.90
2019-03-06T13:01:27.806Z,58.10
2019-03-06T13:03:57.884Z,47.73
2019-03-06T13:06:28.018Z,45.20
2019-03-06T13:08:58.327Z,42.23
2019-03-06T13:11:28.437Z,41.87
2019-03-06T13:13:58.556Z,41.23
2019-03-06T13:16:28.460Z,38.23
2019-03-06T13:19:00.141Z,40.03
2019-03-06T13:21:30.145Z,41.03
2019-03-06T13:24:00.267Z,38.43
2019-03-06T13:26:30.387Z,31.93
2019-03-06T13:29:01.815Z,30.87
2019-03-06T13:31:31.737Z,33.13
2019-03-06T13:34:03.295Z,32.27
2019-03-06T13:36:33.316Z,31.20
2019-03-06T13:39:06.647Z,26.23
2019-03-06T13:41:37.850Z,28.33
2019-03-06T13:44:08.252Z,25.90
2019-03-06T13:46:39.201Z,27.07
2019-03-06T13:49:09.173Z,24.43
2019-03-06T13:51:39.245Z,25.93
2019-03-06T13:54:09.236Z,29.43
2019-03-06T13:56:39.171Z,29.80
2019-03-06T13:59:09.477Z,28.20
2019-03-06T14:01:39.398Z,30.23
2019-03-06T14:04:09.528Z,25.50
2019-03-06T14:06:39.550Z,34.20
2019-03-06T14:09:09.935Z,43.70
2019-03-06T14:11:41.821Z,31.90
2019-03-06T14:14:11.943Z,32.37
2019-03-06T14:16:41.877Z,29.80
2019-03-06T14:19:11.955Z,25.93
2019-03-06T14:21:41.880Z,22.00
2019-03-06T14:24:11.873Z,23.10
2019-03-06T14:26:42.222Z,22.97
2019-03-06T14:29:12.976Z,20.03
2019-03-06T14:31:43.160Z,17.63
2019-03-06T14:34:13.294Z,18.60
2019-03-06T14:36:43.315Z,20.90
2019-03-06T14:39:25.283Z,28.17
2019-03-06T14:41:56.280Z,19.40
2019-03-06T14:44:26.459Z,21.97
2019-03-06T14:46:56.483Z,20.57
2019-03-06T14:49:26.875Z,24.13
2019-03-06T14:51:56.824Z,23.50
2019-03-06T14:54:27.965Z,21.53
2019-03-06T14:56:58.602Z,20.83
2019-03-06T14:59:28.514Z,26.00
2019-03-06T15:01:58.621Z,31.40
2019-03-06T15:04:28.896Z,24.47
2019-03-06T15:06:58.940Z,22.83
2019-03-06T15:09:29.080Z,28.33
2019-03-06T15:11:59.342Z,22.57
2019-03-06T15:14:35.782Z,23.70
2019-03-06T15:17:01.114Z,24.40
2019-03-06T15:19:31.281Z,24.63
2019-03-06T15:22:02.296Z,21.53
2019-03-06T15:24:40.907Z,29.83
2019-03-06T15:27:04.398Z,24.17
2019-03-06T15:29:35.660Z,25.13
2019-03-06T15:32:05.783Z,29.87
2019-03-06T15:34:37.322Z,24.03
2019-03-06T15:37:07.425Z,24.47
2019-03-06T15:39:45.646Z,23.60
2019-03-06T15:42:09.749Z,31.37
2019-03-06T15:44:39.959Z,25.67
2019-03-06T15:47:12.624Z,30.47
2019-03-06T15:49:42.687Z,32.23
2019-03-06T15:52:12.957Z,30.93
2019-03-06T15:54:43.190Z,54.33
2019-03-06T15:57:13.338Z,67.23
2019-03-06T15:59:43.416Z,71.80
2019-03-06T16:02:14.969Z,59.63
2019-03-06T16:04:46.712Z,59.60
2019-03-06T16:07:17.499Z,64.60
2019-03-06T16:09:47.578Z,91.33
2019-03-06T16:12:18.879Z,85.33
2019-03-06T16:14:51.228Z,80.50
2019-03-06T16:17:21.376Z,81.70
2019-03-06T16:19:52.657Z,78.83
2019-03-06T16:22:22.621Z,85.03
2019-03-06T16:24:53.815Z,77.70
2019-03-06T16:27:23.723Z,66.80
2019-03-06T16:29:53.943Z,65.63
2019-03-06T16:32:24.014Z,76.20
2019-03-06T16:34:54.061Z,78.03
2019-03-06T16:37:23.990Z,71.07
2019-03-06T16:39:54.093Z,68.70
2019-03-06T16:42:24.124Z,74.67
2019-03-06T16:44:54.138Z,76.67
2019-03-06T16:47:24.269Z,74.90
2019-03-06T16:49:54.380Z,72.23
2019-03-06T16:52:24.583Z,73.23
2019-03-06T16:54:54.611Z,73.10
2019-03-06T16:57:24.710Z,75.23
2019-03-06T16:59:55.045Z,79.93
2019-03-06T17:02:24.963Z,82.03
2019-03-06T17:04:55.032Z,80.33
2019-03-06T17:07:26.405Z,79.80
2019-03-06T17:09:56.466Z,88.77
2019-03-06T17:12:26.782Z,82.07
2019-03-06T17:14:57.299Z,86.20
2019-03-06T17:17:27.213Z,120.57
2019-03-06T17:19:57.132Z,141.93
2019-03-06T17:22:37.413Z,143.37
2019-03-06T17:25:08.020Z,123.13
2019-03-06T17:27:39.361Z,111.27
2019-03-06T17:30:12.642Z,117.83
2019-03-06T17:32:54.502Z,124.67
2019-03-06T17:35:26.648Z,112.67
2019-03-06T17:37:57.414Z,110.70
2019-03-06T17:40:29.021Z,95.33
2019-03-06T17:43:00.381Z,97.57
2019-03-06T17:45:30.771Z,92.23
2019-03-06T17:48:03.538Z,101.50
2019-03-06T17:50:34.768Z,93.63
2019-03-06T17:53:05.129Z,102.10
2019-03-06T17:55:35.438Z,101.40
2019-03-06T17:58:05.796Z,100.03
2019-03-06T18:00:43.550Z,105.27
2019-03-06T18:03:18.090Z,95.80
2019-03-06T18:05:48.080Z,105.47
2019-03-06T18:08:18.101Z,103.50
2019-03-06T18:10:48.128Z,102.97
2019-03-06T18:13:18.132Z,106.57
2019-03-06T18:15:48.065Z,107.27
2019-03-06T18:18:17.960Z,109.17
2019-03-06T18:20:47.883Z,120.70
2019-03-06T18:23:18.210Z,198.17
2019-03-06T18:25:48.524Z,169.33
2019-03-06T18:28:18.533Z,121.17
2019-03-06T18:30:48.697Z,108.73
2019-03-06T18:33:19.188Z,101.57
2019-03-06T18:35:49.531Z,103.73
2019-03-06T18:38:19.539Z,93.80
2019-03-06T18:40:51.170Z,88.97
2019-03-06T18:43:21.181Z,100.90
2019-03-06T18:45:51.102Z,93.57
2019-03-06T18:48:21.117Z,103.93
2019-03-06T18:50:51.045Z,97.10
2019-03-06T18:53:25.369Z,99.07
2019-03-06T18:55:55.843Z,91.90
2019-03-06T18:58:26.094Z,94.67
2019-03-06T19:00:56.205Z,106.87
2019-03-06T19:03:32.696Z,109.07
2019-03-06T19:06:04.036Z,109.17
2019-03-06T19:08:34.161Z,97.60
2019-03-06T19:11:04.264Z,94.43
2019-03-06T19:13:34.173Z,99.30
2019-03-06T19:16:04.199Z,91.90
2019-03-06T19:18:34.215Z,101.23
2019-03-06T19:21:04.290Z,104.07
2019-03-06T19:23:34.465Z,93.67
2019-03-06T19:26:04.641Z,95.57
2019-03-06T19:28:34.687Z,99.93
2019-03-06T19:31:04.703Z,100.33
2019-03-06T19:33:35.230Z,93.83
2019-03-06T19:36:05.243Z,89.93
2019-03-06T19:38:35.260Z,97.27
2019-03-06T19:41:06.701Z,86.47
2019-03-06T19:43:36.737Z,91.80
2019-03-06T19:46:06.835Z,94.97
2019-03-06T19:48:37.432Z,86.20
2019-03-06T19:51:07.269Z,91.43
2019-03-06T19:53:37.503Z,96.30
2019-03-06T19:56:08.862Z,95.20
2019-03-06T19:58:38.963Z,94.83
2019-03-06T20:01:09.293Z,94.10
2019-03-06T20:03:39.523Z,92.87
2019-03-06T20:06:09.523Z,93.23
2019-03-06T20:08:40.464Z,95.60
2019-03-06T20:11:10.364Z,86.40
2019-03-06T20:13:40.284Z,86.43
2019-03-06T20:16:11.414Z,84.63
2019-03-06T20:18:41.444Z,91.97
2019-03-06T20:21:11.373Z,90.83
2019-03-06T20:23:41.474Z,92.17
2019-03-06T20:26:14.517Z,94.80
2019-03-06T20:28:43.052Z,106.27
2019-03-06T20:31:13.343Z,102.07
2019-03-06T20:33:43.284Z,90.67
2019-03-06T20:36:13.301Z,88.83
2019-03-06T20:38:43.323Z,92.63
2019-03-06T20:41:14.865Z,94.07
2019-03-06T20:43:45.183Z,98.87
2019-03-06T20:46:15.214Z,99.67
2019-03-06T20:48:46.343Z,85.20
2019-03-06T20:51:16.563Z,88.60
2019-03-06T20:53:46.496Z,95.23
2019-03-06T20:56:16.612Z,104.47
2019-03-06T20:58:46.610Z,119.90
2019-03-06T21:01:17.041Z,115.53
2019-03-06T21:03:47.160Z,109.60
2019-03-06T21:06:17.384Z,105.23
2019-03-06T21:08:47.432Z,114.83
2019-03-06T21:11:17.518Z,126.03
2019-03-06T21:13:47.741Z,144.33
2019-03-06T21:16:17.750Z,132.67
2019-03-06T21:18:47.985Z,113.27
2019-03-06T21:21:18.197Z,129.17
2019-03-06T21:23:48.401Z,126.80
2019-03-06T21:26:18.333Z,146.50
2019-03-06T21:28:48.240Z,143.13
2019-03-06T21:31:18.719Z,187.63
2019-03-06T21:33:48.876Z,127.47
2019-03-06T21:36:19.929Z,132.97
2019-03-06T21:38:49.833Z,140.43
2019-03-06T21:41:19.836Z,121.03
2019-03-06T21:43:49.885Z,103.87
2019-03-06T21:46:20.296Z,100.03
2019-03-06T21:48:50.312Z,93.87
2019-03-06T21:51:20.471Z,104.07
2019-03-06T21:53:51.459Z,103.60
2019-03-06T21:56:21.435Z,104.50
2019-03-06T21:58:51.401Z,97.43
2019-03-06T22:01:21.619Z,93.43
2019-03-06T22:03:51.785Z,94.90
2019-03-06T22:06:21.758Z,97.53
2019-03-06T22:08:51.871Z,95.40
2019-03-06T22:11:21.872Z,92.50
2019-03-06T22:13:52.155Z,101.30
2019-03-06T22:16:22.316Z,94.63
2019-03-06T22:18:52.451Z,92.13
2019-03-06T22:21:22.560Z,97.50
2019-03-06T22:23:52.459Z,90.07
2019-03-06T22:26:22.795Z,89.07
2019-03-06T22:28:52.697Z,97.37
2019-03-06T22:31:22.719Z,95.40
2019-03-06T22:33:52.739Z,94.83
2019-03-06T22:36:22.967Z,94.63
2019-03-06T22:38:53.066Z,93.60
2019-03-06T22:41:23.726Z,94.47
2019-03-06T22:43:54.128Z,90.17
2019-03-06T22:46:24.967Z,104.80
2019-03-06T22:48:55.086Z,100.53
2019-03-06T22:51:25.526Z,98.27
2019-03-06T22:53:55.875Z,92.37
2019-03-06T22:56:26.273Z,93.77
2019-03-06T22:58:56.382Z,103.73
2019-03-06T23:01:27.075Z,90.03
2019-03-06T23:03:57.254Z,91.37
2019-03-06T23:06:27.157Z,100.33
2019-03-06T23:08:57.163Z,94.50
2019-03-06T23:11:29.122Z,82.20
2019-03-06T23:13:59.435Z,90.60
2019-03-06T23:16:29.914Z,81.93
2019-03-06T23:19:00.096Z,83.97
2019-03-06T23:21:30.114Z,81.97
2019-03-06T23:24:00.014Z,67.90
2019-03-06T23:26:31.154Z,75.83
2019-03-06T23:29:01.994Z,70.80
2019-03-06T23:31:32.214Z,74.50
2019-03-06T23:34:03.256Z,70.53
2019-03-06T23:36:33.253Z,67.57
2019-03-06T23:39:03.173Z,69.13
2019-03-06T23:41:34.835Z,69.60
2019-03-06T23:44:04.743Z,71.63
2019-03-06T23:46:35.174Z,60.57
2019-03-06T23:49:05.202Z,67.57
2019-03-06T23:51:35.413Z,68.87
2019-03-06T23:54:05.637Z,71.37
2019-03-06T23:56:35.754Z,70.60
2019-03-06T23:59:06.273Z,66.27
